ADDS METAR Data INFO
IDs: Format: Raw Decoded Include TAF

Data at: 1230 UTC 20 Jul 2017

METAR for:KSAT (San Antonio Intl, TX, US)
Text:KSAT 201151Z 14004KT 10SM FEW011 24/23 A3014 RMK AO2 SLP186 T02440228 10278 20244 53009
Temperature: 24.4°C ( 76°F)
Dewpoint: 22.8°C ( 73°F) [RH = 91%]
Pressure (altimeter):30.14 inches Hg (1020.7 mb) [Sea level pressure: 1018.6 mb]
Winds:from the SE (140 degrees) at 5 MPH (4 knots; 2.1 m/s)
Visibility:10 or more sm (16+ km)
Ceiling:at least 12,000 feet AGL
Clouds: few clouds at 1100 feet AGL